Meteo Giornale » Osservazioni meteo Norvegia » Oslo-Fornebu
ore: 23:50 - Osservazioni Meteo Oslo-Fornebu
Lat. 59° 54' N Lon. 10° 38' E Alt. 1 metri s.l.m.
12 °C
Molto Nuvoloso
Temp. 24 Ore
12 °C
15 °C
Sud-Ovest
62.9 Km/h
Dew point 8 °C
Umidità 76 %
Visibilità 10 Km
Il sole sorge alle ore 06:15
Il sole tramonta alle ore 20:18
| Data e Ora | Cielo e Fenomeni | T °C | DP °C | Um. % | Pres. hPa | Vis. km | Vento km/h | |
|---|---|---|---|---|---|---|---|---|
| Ieri h: 23:50 | Molto Nuvoloso | 12 | 8 | 76 | 1001 | 10 | SO 62.9 | |
| Ieri h: 23:20 | Molto Nuvoloso | 12 | 9 | 81 | 1001 | 10 | SO 61.1 | |
| Ieri h: 22:50 | Molto Nuvoloso | 13 | 10 | 81 | 1001 | 10 | S/SO 50 | |
| Ieri h: 22:20 | Nuvoloso | 12 | 9 | 81 | 1001 | 10 | SO 53.7 | |
| Ieri h: 21:50 | Nuvoloso | 12 | 9 | 81 | 1001 | 10 | SO 53.7 | |
| Ieri h: 21:20 | Nuvoloso | 12 | 8 | 76 | 1001 | 10 | O/SO 55.5 | |
| Ieri h: 20:50 | Nuvoloso | 13 | 10 | 81 | 1001 | 10 | O/SO 51.8 | |
| Ieri h: 20:20 | Nuvoloso | 13 | 10 | 81 | 1001 | 10 | O/SO 48.1 | |
| Ieri h: 19:50 | Molto Nuvoloso | 13 | 10 | 81 | 1000 | 10 | O/SO 46.3 | |
| Ieri h: 19:20 | Pioggia | 12 | 10 | 87 | 1000 | 2 | SO 50 | |
| Ieri h: 18:50 | Pioggia | 14 | 13 | 93 | 1001 | 10 | S 48.1 | |
| Ieri h: 18:20 | Pioggia | 14 | 13 | 93 | 1001 | 3 | S/SE 68.5 | |
| Ieri h: 17:50 | Pioggia | 13 | 12 | 93 | 1001 | 2 | S/SE 62.9 | |
| Ieri h: 17:20 | Pioggia | 14 | 12 | 87 | 1002 | 9 | S/SE 66.6 | |
| Ieri h: 16:50 | Pioggia | 14 | 11 | 82 | 1003 | 10 | S/SE 64.8 | |
| Ieri h: 16:20 | Nuvoloso | 14 | 11 | 82 | 1003 | 10 | S/SE 64.8 | |
| Ieri h: 15:50 | Sereno | 14 | 11 | 82 | 1004 | 10 | S/SE 59.2 | |
| Ieri h: 15:20 | Nuvoloso | 14 | 11 | 82 | 1004 | 10 | S 61.1 | |
| Ieri h: 14:50 | Molto Nuvoloso | 15 | 11 | 76 | 1005 | 10 | S 57.3 | |
| Ieri h: 14:20 | Molto Nuvoloso | 15 | 10 | 72 | 1005 | 10 | S 55.5 | |
| Ieri h: 13:50 | Molto Nuvoloso | 15 | 11 | 76 | 1006 | 10 | S 48.1 | |
| Ieri h: 13:20 | Poco Nuvoloso | 15 | 11 | 76 | 1006 | 10 | S 44.4 | |
| Ieri h: 12:50 | Molto Nuvoloso | 15 | 11 | 76 | 1006 | 10 | S 40.7 | |
| Ieri h: 12:20 | Molto Nuvoloso | 14 | 11 | 82 | 1006 | 10 | S 38.8 | |
| Ieri h: 11:50 | Molto Nuvoloso | 14 | 11 | 82 | 1007 | 10 | S/SO 31.5 | |
| Ieri h: 11:20 | Molto Nuvoloso | 14 | 11 | 82 | 1007 | 10 | S/SO 31.5 | |
| Ieri h: 10:50 | Molto Nuvoloso | 14 | 11 | 82 | 1007 | 10 | S/SO 29.6 | |
| Ieri h: 10:20 | Molto Nuvoloso | 14 | 10 | 76 | 1007 | 10 | S/SO 27.8 | |
| Ieri h: 09:50 | Molto Nuvoloso | 12 | 10 | 87 | 1007 | 10 | S/SO 25.9 | |
| Ieri h: 09:20 | Nuvoloso | 12 | 10 | 87 | 1007 | 10 | S/SO 29.6 | |
| Ieri h: 08:50 | Molto Nuvoloso | 12 | 9 | 81 | 1007 | 10 | S/SO 22.2 | |
| Ieri h: 08:20 | Molto Nuvoloso | 12 | 9 | 81 | 1007 | 10 | S/SO 20.3 | |
| Ieri h: 07:50 | Nuvoloso | 12 | 8 | 76 | 1007 | 10 | SO 24 | |
| Ieri h: 07:20 | Molto Nuvoloso | 12 | 8 | 76 | 1008 | 10 | SO 20.3 | |
| Ieri h: 06:50 | Poco Nuvoloso | 12 | 8 | 76 | 1008 | 10 | SO 25.9 | |
| Ieri h: 06:20 | Nuvoloso | 12 | 7 | 71 | 1008 | 10 | SO 24 | |
| Ieri h: 05:50 | Molto Nuvoloso | 12 | 7 | 71 | 1008 | 10 | O/SO 27.8 | |
| Ieri h: 05:20 | Molto Nuvoloso | 12 | 8 | 76 | 1008 | 10 | O/SO 27.8 | |
| Ieri h: 04:50 | Coperto | 12 | 9 | 81 | 1008 | 10 | O/SO 25.9 | |
| Ieri h: 04:20 | Coperto | 12 | 9 | 81 | 1008 | 10 | O/SO 25.9 | |
| Ieri h: 03:50 | Coperto | 12 | 10 | 87 | 1008 | 10 | O 27.8 | |
| Ieri h: 03:20 | Coperto | 12 | 10 | 87 | 1007 | 10 | O 27.8 | |
| Ieri h: 02:50 | Pioggia Foschia | 12 | 11 | 93 | 1008 | 4 | O 25.9 | |
| Ieri h: 02:20 | Coperto | 12 | 11 | 93 | 1007 | 7 | S/SO 31.5 | |
| Ieri h: 01:50 | Coperto | 13 | 10 | 81 | 1008 | 10 | S/SO 27.8 | |
| Ieri h: 01:20 | Molto Nuvoloso | 14 | 10 | 76 | 1008 | 10 | S 24 | |
| Ieri h: 00:50 | Molto Nuvoloso | 13 | 10 | 81 | 1008 | 10 | S/SO 24 | |



